sensor_id;sensor_type;location;lat;lon;timestamp;pressure;altitude;pressure_sealevel;temperature;humidity
23281;BME280;11809;56.390;-3.266;2022-10-24T00:01:15;99047.31;;;16.19;67.46
23281;BME280;11809;56.390;-3.266;2022-10-24T00:03:43;99049.97;;;16.19;67.42
23281;BME280;11809;56.390;-3.266;2022-10-24T00:06:11;99041.44;;;16.16;67.33
23281;BME280;11809;56.390;-3.266;2022-10-24T00:08:41;99043.84;;;16.19;67.45
23281;BME280;11809;56.390;-3.266;2022-10-24T00:11:10;99036.03;;;16.17;67.54
23281;BME280;11809;56.390;-3.266;2022-10-24T00:13:38;99028.34;;;16.14;67.48
23281;BME280;11809;56.390;-3.266;2022-10-24T00:16:05;99032.81;;;16.14;67.59
23281;BME280;11809;56.390;-3.266;2022-10-24T00:18:33;99026.66;;;16.13;67.45
23281;BME280;11809;56.390;-3.266;2022-10-24T00:21:00;99028.34;;;16.14;67.48
23281;BME280;11809;56.390;-3.266;2022-10-24T00:23:26;99034.59;;;16.13;67.65
23281;BME280;11809;56.390;-3.266;2022-10-24T00:25:53;99026.66;;;16.13;67.50
23281;BME280;11809;56.390;-3.266;2022-10-24T00:28:20;99017.16;;;16.11;67.82
23281;BME280;11809;56.390;-3.266;2022-10-24T00:30:51;99018.84;;;16.12;67.68
23281;BME280;11809;56.390;-3.266;2022-10-24T00:33:18;99014.66;;;16.09;67.71
23281;BME280;11809;56.390;-3.266;2022-10-24T00:35:45;99011.19;;;16.09;67.85
23281;BME280;11809;56.390;-3.266;2022-10-24T00:38:13;99012.88;;;16.10;67.55
23281;BME280;11809;56.390;-3.266;2022-10-24T00:40:40;99011.31;;;16.07;67.72
23281;BME280;11809;56.390;-3.266;2022-10-24T00:43:18;99010.31;;;16.08;67.65
23281;BME280;11809;56.390;-3.266;2022-10-24T00:45:49;99011.31;;;16.07;67.82
23281;BME280;11809;56.390;-3.266;2022-10-24T00:48:21;99004.59;;;16.03;67.48
23281;BME280;11809;56.390;-3.266;2022-10-24T00:50:51;99014.09;;;16.06;67.72
23281;BME280;11809;56.390;-3.266;2022-10-24T00:53:20;99016.88;;;16.04;67.77
23281;BME280;11809;56.390;-3.266;2022-10-24T00:55:50;99016.75;;;16.06;67.64
23281;BME280;11809;56.390;-3.266;2022-10-24T00:58:20;99011.59;;;16.04;67.71
23281;BME280;11809;56.390;-3.266;2022-10-24T01:00:48;99008.94;;;16.04;67.62
23281;BME280;11809;56.390;-3.266;2022-10-24T01:03:16;99013.50;;;16.02;67.90
23281;BME280;11809;56.390;-3.266;2022-10-24T01:08:52;99004.75;;;16.02;67.85
23281;BME280;11809;56.390;-3.266;2022-10-24T01:17:33;98996.91;;;16.00;67.82
23281;BME280;11809;56.390;-3.266;2022-10-24T01:23:08;98997.91;;;15.99;67.83
23281;BME280;11809;56.390;-3.266;2022-10-24T01:29:11;98994.53;;;15.97;67.87
23281;BME280;11809;56.390;-3.266;2022-10-24T01:31:54;98991.88;;;15.97;67.89
23281;BME280;11809;56.390;-3.266;2022-10-24T01:37:24;98982.28;;;15.96;67.93
23281;BME280;11809;56.390;-3.266;2022-10-24T01:40:03;98976.13;;;15.96;67.98
23281;BME280;11809;56.390;-3.266;2022-10-24T01:42:34;98979.91;;;15.93;68.01
23281;BME280;11809;56.390;-3.266;2022-10-24T01:45:05;98985.06;;;15.95;67.99
23281;BME280;11809;56.390;-3.266;2022-10-24T01:47:37;98979.91;;;15.93;67.87
23281;BME280;11809;56.390;-3.266;2022-10-24T01:50:09;98976.41;;;15.93;68.04
23281;BME280;11809;56.390;-3.266;2022-10-24T01:52:38;98973.06;;;15.91;68.14
23281;BME280;11809;56.390;-3.266;2022-10-24T01:55:07;98977.38;;;15.92;68.02
23281;BME280;11809;56.390;-3.266;2022-10-24T01:57:34;98965.97;;;15.91;67.99
23281;BME280;11809;56.390;-3.266;2022-10-24T02:00:04;98967.75;;;15.91;68.02
23281;BME280;11809;56.390;-3.266;2022-10-24T02:02:38;98966.91;;;15.90;68.06
23281;BME280;11809;56.390;-3.266;2022-10-24T02:05:33;98968.72;;;15.90;68.26
23281;BME280;11809;56.390;-3.266;2022-10-24T02:08:06;98964.41;;;15.89;68.07
23281;BME280;11809;56.390;-3.266;2022-10-24T02:10:39;98956.47;;;15.89;68.14
23281;BME280;11809;56.390;-3.266;2022-10-24T02:13:38;98962.72;;;15.88;68.19
23281;BME280;11809;56.390;-3.266;2022-10-24T02:16:08;98955.75;;;15.87;68.29
23281;BME280;11809;56.390;-3.266;2022-10-24T02:18:36;98944.31;;;15.86;68.05
23281;BME280;11809;56.390;-3.266;2022-10-24T02:21:23;98943.50;;;15.86;68.22
23281;BME280;11809;56.390;-3.266;2022-10-24T02:24:02;98948.91;;;15.84;68.08
23281;BME280;11809;56.390;-3.266;2022-10-24T02:26:37;98941.66;;;15.86;68.07
23281;BME280;11809;56.390;-3.266;2022-10-24T02:29:15;98942.66;;;15.85;68.22
23281;BME280;11809;56.390;-3.266;2022-10-24T02:31:49;98928.72;;;15.83;68.30
23281;BME280;11809;56.390;-3.266;2022-10-24T02:34:21;98934.81;;;15.84;68.22
23281;BME280;11809;56.390;-3.266;2022-10-24T02:36:52;98931.38;;;15.83;68.20
23281;BME280;11809;56.390;-3.266;2022-10-24T02:39:21;98931.38;;;15.83;68.36
23281;BME280;11809;56.390;-3.266;2022-10-24T02:41:50;98931.38;;;15.83;68.09
23281;BME280;11809;56.390;-3.266;2022-10-24T02:44:21;98921.72;;;15.82;68.14
23281;BME280;11809;56.390;-3.266;2022-10-24T02:46:50;98916.44;;;15.82;68.44
23281;BME280;11809;56.390;-3.266;2022-10-24T02:49:18;98914.75;;;15.81;68.28
23281;BME280;11809;56.390;-3.266;2022-10-24T02:51:46;98910.44;;;15.80;68.42
23281;BME280;11809;56.390;-3.266;2022-10-24T02:54:13;98911.41;;;15.79;68.38
23281;BME280;11809;56.390;-3.266;2022-10-24T02:56:45;98914.06;;;15.79;68.38
23281;BME280;11809;56.390;-3.266;2022-10-24T02:59:13;98911.41;;;15.79;68.43
23281;BME280;11809;56.390;-3.266;2022-10-24T03:01:40;98913.34;;;15.77;68.26
23281;BME280;11809;56.390;-3.266;2022-10-24T03:04:07;98914.19;;;15.77;68.35
23281;BME280;11809;56.390;-3.266;2022-10-24T03:06:34;98920.34;;;15.78;68.33
23281;BME280;11809;56.390;-3.266;2022-10-24T03:09:01;98914.06;;;15.79;68.28
23281;BME280;11809;56.390;-3.266;2022-10-24T03:11:28;98916.69;;;15.79;68.22
23281;BME280;11809;56.390;-3.266;2022-10-24T03:13:55;98915.03;;;15.78;68.24
23281;BME280;11809;56.390;-3.266;2022-10-24T03:16:22;98913.22;;;15.78;68.43
23281;BME280;11809;56.390;-3.266;2022-10-24T03:18:49;98910.72;;;15.77;68.33
23281;BME280;11809;56.390;-3.266;2022-10-24T03:21:15;98912.50;;;15.76;68.27
23281;BME280;11809;56.390;-3.266;2022-10-24T03:23:42;98909.88;;;15.76;68.49
23281;BME280;11809;56.390;-3.266;2022-10-24T03:26:09;98910.00;;;15.75;68.30
23281;BME280;11809;56.390;-3.266;2022-10-24T03:28:36;98905.53;;;15.75;68.53
23281;BME280;11809;56.390;-3.266;2022-10-24T03:31:03;98905.53;;;15.75;68.38
23281;BME280;11809;56.390;-3.266;2022-10-24T03:33:31;98906.38;;;15.76;68.55
23281;BME280;11809;56.390;-3.266;2022-10-24T03:35:58;98905.69;;;15.74;68.56
23281;BME280;11809;56.390;-3.266;2022-10-24T03:38:25;98904.84;;;15.73;68.50
23281;BME280;11809;56.390;-3.266;2022-10-24T03:40:52;98905.69;;;15.74;68.34
23281;BME280;11809;56.390;-3.266;2022-10-24T03:43:19;98901.34;;;15.73;68.60
23281;BME280;11809;56.390;-3.266;2022-10-24T03:45:46;98903.19;;;15.72;68.37
23281;BME280;11809;56.390;-3.266;2022-10-24T03:48:13;98908.34;;;15.74;68.33
23281;BME280;11809;56.390;-3.266;2022-10-24T03:50:40;98903.31;;;15.71;68.38
23281;BME280;11809;56.390;-3.266;2022-10-24T03:53:07;98900.66;;;15.71;68.45
23281;BME280;11809;56.390;-3.266;2022-10-24T03:55:34;98899.69;;;15.72;68.32
23281;BME280;11809;56.390;-3.266;2022-10-24T03:58:01;98892.72;;;15.71;68.47
23281;BME280;11809;56.390;-3.266;2022-10-24T04:00:28;98898.00;;;15.71;68.42
23281;BME280;11809;56.390;-3.266;2022-10-24T04:02:55;98894.66;;;15.69;68.49
23281;BME280;11809;56.390;-3.266;2022-10-24T04:05:22;98896.34;;;15.70;68.29
23281;BME280;11809;56.390;-3.266;2022-10-24T04:07:49;98892.00;;;15.69;68.44
23281;BME280;11809;56.390;-3.266;2022-10-24T04:10:16;98892.97;;;15.68;68.51
23281;BME280;11809;56.390;-3.266;2022-10-24T04:12:43;98893.69;;;15.70;68.48
23281;BME280;11809;56.390;-3.266;2022-10-24T04:15:10;98899.97;;;15.69;68.33
23281;BME280;11809;56.390;-3.266;2022-10-24T04:17:37;98896.63;;;15.67;68.29
23281;BME280;11809;56.390;-3.266;2022-10-24T04:20:04;98890.31;;;15.68;68.51
23281;BME280;11809;56.390;-3.266;2022-10-24T04:22:31;98891.31;;;15.67;68.43
23281;BME280;11809;56.390;-3.266;2022-10-24T04:24:58;98886.97;;;15.66;68.36
23281;BME280;11809;56.390;-3.266;2022-10-24T04:27:25;98888.78;;;15.65;68.49
23281;BME280;11809;56.390;-3.266;2022-10-24T04:29:52;98886.28;;;15.64;68.46
23281;BME280;11809;56.390;-3.266;2022-10-24T04:32:19;98888.94;;;15.64;68.38
23281;BME280;11809;56.390;-3.266;2022-10-24T04:34:46;98887.13;;;15.64;68.50
23281;BME280;11809;56.390;-3.266;2022-10-24T04:37:13;98893.25;;;15.65;68.52
23281;BME280;11809;56.390;-3.266;2022-10-24T04:39:40;98892.44;;;15.64;68.76
23281;BME280;11809;56.390;-3.266;2022-10-24T04:42:07;98888.94;;;15.64;68.88
23281;BME280;11809;56.390;-3.266;2022-10-24T04:44:33;98894.09;;;15.65;69.03
23281;BME280;11809;56.390;-3.266;2022-10-24T04:47:00;98888.25;;;15.62;69.32
23281;BME280;11809;56.390;-3.266;2022-10-24T04:49:27;98892.44;;;15.64;69.28
23281;BME280;11809;56.390;-3.266;2022-10-24T04:51:54;98895.06;;;15.64;69.24
23281;BME280;11809;56.390;-3.266;2022-10-24T04:54:21;98898.53;;;15.65;69.37
23281;BME280;11809;56.390;-3.266;2022-10-24T04:56:48;98893.25;;;15.65;69.22
23281;BME280;11809;56.390;-3.266;2022-10-24T04:59:15;98894.94;;;15.66;69.15
23281;BME280;11809;56.390;-3.266;2022-10-24T05:01:41;98884.34;;;15.66;69.11
23281;BME280;11809;56.390;-3.266;2022-10-24T05:04:08;98893.97;;;15.67;68.88
23281;BME280;11809;56.390;-3.266;2022-10-24T05:06:35;98886.97;;;15.66;69.12
23281;BME280;11809;56.390;-3.266;2022-10-24T05:09:06;98892.13;;;15.67;69.33
23281;BME280;11809;56.390;-3.266;2022-10-24T05:11:33;98902.47;;;15.70;69.38
23281;BME280;11809;56.390;-3.266;2022-10-24T05:14:00;98892.59;;;15.72;69.11
23281;BME280;11809;56.390;-3.266;2022-10-24T05:16:27;98899.53;;;15.73;69.53
23281;BME280;11809;56.390;-3.266;2022-10-24T05:18:54;98904.72;;;15.75;69.67
23281;BME280;11809;56.390;-3.266;2022-10-24T05:21:21;98898.44;;;15.76;69.91
23281;BME280;11809;56.390;-3.266;2022-10-24T05:23:48;98903.59;;;15.77;70.10
23281;BME280;11809;56.390;-3.266;2022-10-24T05:26:15;98900.81;;;15.79;70.03
23281;BME280;11809;56.390;-3.266;2022-10-24T05:28:42;98898.84;;;15.81;70.24
23281;BME280;11809;56.390;-3.266;2022-10-24T05:31:09;98900.53;;;15.82;70.63
23281;BME280;11809;56.390;-3.266;2022-10-24T05:33:35;98896.94;;;15.83;70.77
23281;BME280;11809;56.390;-3.266;2022-10-24T05:36:04;98904.72;;;15.85;70.76
23281;BME280;11809;56.390;-3.266;2022-10-24T05:38:31;98902.91;;;15.85;70.76
23281;BME280;11809;56.390;-3.266;2022-10-24T05:40:57;98913.38;;;15.87;70.61
23281;BME280;11809;56.390;-3.266;2022-10-24T05:43:24;98908.63;;;15.90;70.44
23281;BME280;11809;56.390;-3.266;2022-10-24T05:45:51;98911.28;;;15.90;70.46
23281;BME280;11809;56.390;-3.266;2022-10-24T05:48:18;98915.63;;;15.91;70.53
23281;BME280;11809;56.390;-3.266;2022-10-24T05:50:45;98916.44;;;15.92;70.78
23281;BME280;11809;56.390;-3.266;2022-10-24T05:53:12;98918.13;;;15.93;70.74
23281;BME280;11809;56.390;-3.266;2022-10-24T05:55:39;98914.63;;;15.92;70.61
23281;BME280;11809;56.390;-3.266;2022-10-24T05:58:06;98916.31;;;15.93;70.41
23281;BME280;11809;56.390;-3.266;2022-10-24T06:00:33;98918.97;;;15.93;70.42
23281;BME280;11809;56.390;-3.266;2022-10-24T06:03:00;98917.16;;;15.94;70.31
23281;BME280;11809;56.390;-3.266;2022-10-24T06:05:27;98920.63;;;15.94;70.24
23281;BME280;11809;56.390;-3.266;2022-10-24T06:07:54;98918.97;;;15.93;70.26
23281;BME280;11809;56.390;-3.266;2022-10-24T06:10:21;98918.97;;;15.93;70.15
23281;BME280;11809;56.390;-3.266;2022-10-24T06:12:48;98916.31;;;15.93;70.01
23281;BME280;11809;56.390;-3.266;2022-10-24T06:15:15;98929.56;;;15.93;70.12
23281;BME280;11809;56.390;-3.266;2022-10-24T06:17:42;98928.56;;;15.94;70.14
23281;BME280;11809;56.390;-3.266;2022-10-24T06:20:09;98919.81;;;15.94;70.15
23281;BME280;11809;56.390;-3.266;2022-10-24T06:22:36;98917.00;;;15.95;70.16
23281;BME280;11809;56.390;-3.266;2022-10-24T06:25:03;98924.97;;;15.95;70.28
23281;BME280;11809;56.390;-3.266;2022-10-24T06:27:30;98920.63;;;15.94;70.20
23281;BME280;11809;56.390;-3.266;2022-10-24T06:29:57;98921.34;;;15.96;70.04
23281;BME280;11809;56.390;-3.266;2022-10-24T06:32:24;98918.53;;;15.98;69.95
23281;BME280;11809;56.390;-3.266;2022-10-24T06:34:51;98921.63;;;15.93;69.84
23281;BME280;11809;56.390;-3.266;2022-10-24T06:37:18;98922.03;;;15.89;69.71
23281;BME280;11809;56.390;-3.266;2022-10-24T06:39:45;98919.50;;;15.87;69.43
23281;BME280;11809;56.390;-3.266;2022-10-24T06:42:13;98921.72;;;15.82;69.61
23281;BME280;11809;56.390;-3.266;2022-10-24T06:44:40;98918.38;;;15.80;70.01
23281;BME280;11809;56.390;-3.266;2022-10-24T06:47:06;98920.03;;;15.81;70.11
23281;BME280;11809;56.390;-3.266;2022-10-24T06:49:33;98914.06;;;15.79;70.50
23281;BME280;11809;56.390;-3.266;2022-10-24T06:52:00;98926.34;;;15.80;70.47
23281;BME280;11809;56.390;-3.266;2022-10-24T06:54:27;98924.78;;;15.77;70.63
23281;BME280;11809;56.390;-3.266;2022-10-24T06:56:56;98919.50;;;15.77;70.64
23281;BME280;11809;56.390;-3.266;2022-10-24T06:59:23;98919.50;;;15.77;70.62
23281;BME280;11809;56.390;-3.266;2022-10-24T07:01:50;98924.78;;;15.77;70.58
23281;BME280;11809;56.390;-3.266;2022-10-24T07:04:17;98929.25;;;15.77;70.55
23281;BME280;11809;56.390;-3.266;2022-10-24T07:06:44;98926.03;;;15.73;70.63
23281;BME280;11809;56.390;-3.266;2022-10-24T07:09:11;98922.84;;;15.70;70.56
23281;BME280;11809;56.390;-3.266;2022-10-24T07:11:41;98933.13;;;15.73;70.50
23281;BME280;11809;56.390;-3.266;2022-10-24T07:14:09;98931.47;;;15.72;70.42
23281;BME280;11809;56.390;-3.266;2022-10-24T07:16:36;98935.09;;;15.71;70.62
23281;BME280;11809;56.390;-3.266;2022-10-24T07:19:04;98937.72;;;15.71;70.63
23281;BME280;11809;56.390;-3.266;2022-10-24T07:21:32;98938.56;;;15.71;70.58
23281;BME280;11809;56.390;-3.266;2022-10-24T07:24:00;98941.38;;;15.70;70.32
23281;BME280;11809;56.390;-3.266;2022-10-24T07:26:27;98936.19;;;15.68;70.69
23281;BME280;11809;56.390;-3.266;2022-10-24T07:28:57;98948.59;;;15.68;70.44
23281;BME280;11809;56.390;-3.266;2022-10-24T07:31:46;98945.09;;;15.67;70.61
23281;BME280;11809;56.390;-3.266;2022-10-24T07:34:14;98941.75;;;15.65;70.63
23281;BME280;11809;56.390;-3.266;2022-10-24T07:36:41;98946.19;;;15.65;70.76
23281;BME280;11809;56.390;-3.266;2022-10-24T07:39:10;98944.53;;;15.64;70.83
23281;BME280;11809;56.390;-3.266;2022-10-24T07:41:38;98949.69;;;15.65;70.85
23281;BME280;11809;56.390;-3.266;2022-10-24T07:44:09;98952.50;;;15.64;70.73
23281;BME280;11809;56.390;-3.266;2022-10-24T07:46:37;98955.13;;;15.64;70.92
23281;BME280;11809;56.390;-3.266;2022-10-24T07:49:04;98956.09;;;15.63;70.72
23281;BME280;11809;56.390;-3.266;2022-10-24T07:51:31;98964.03;;;15.63;70.86
23281;BME280;11809;56.390;-3.266;2022-10-24T07:53:58;98966.69;;;15.63;70.66
23281;BME280;11809;56.390;-3.266;2022-10-24T07:56:25;98960.56;;;15.62;70.88
23281;BME280;11809;56.390;-3.266;2022-10-24T07:58:52;98971.28;;;15.61;71.04
23281;BME280;11809;56.390;-3.266;2022-10-24T08:01:23;98969.59;;;15.60;71.30
23281;BME280;11809;56.390;-3.266;2022-10-24T08:03:51;98974.91;;;15.60;71.15
23281;BME280;11809;56.390;-3.266;2022-10-24T08:06:25;98977.56;;;15.60;71.02
23281;BME280;11809;56.390;-3.266;2022-10-24T08:08:54;98973.25;;;15.59;70.92
23281;BME280;11809;56.390;-3.266;2022-10-24T08:11:24;98979.50;;;15.58;71.15
23281;BME280;11809;56.390;-3.266;2022-10-24T08:13:53;98979.50;;;15.58;70.87
23281;BME280;11809;56.390;-3.266;2022-10-24T08:16:23;98984.09;;;15.56;71.04
23281;BME280;11809;56.390;-3.266;2022-10-24T08:18:53;98975.16;;;15.57;71.10
23281;BME280;11809;56.390;-3.266;2022-10-24T08:21:22;98969.88;;;15.57;70.94
23281;BME280;11809;56.390;-3.266;2022-10-24T08:23:52;98977.13;;;15.55;71.00
23281;BME280;11809;56.390;-3.266;2022-10-24T08:26:21;98980.59;;;15.55;71.00
23281;BME280;11809;56.390;-3.266;2022-10-24T08:28:49;98980.75;;;15.54;71.04
23281;BME280;11809;56.390;-3.266;2022-10-24T08:31:19;98982.41;;;15.55;71.06
23281;BME280;11809;56.390;-3.266;2022-10-24T08:33:46;98984.22;;;15.54;71.04
23281;BME280;11809;56.390;-3.266;2022-10-24T08:36:24;98986.84;;;15.54;71.38
23281;BME280;11809;56.390;-3.266;2022-10-24T08:38:53;98984.34;;;15.53;71.20
23281;BME280;11809;56.390;-3.266;2022-10-24T08:43:55;98992.16;;;15.54;71.33
23281;BME280;11809;56.390;-3.266;2022-10-24T08:46:47;98996.63;;;15.54;71.14
23281;BME280;11809;56.390;-3.266;2022-10-24T08:49:36;98996.63;;;15.54;71.37
23281;BME280;11809;56.390;-3.266;2022-10-24T08:52:37;99005.53;;;15.53;71.45
23281;BME280;11809;56.390;-3.266;2022-10-24T08:55:16;99001.94;;;15.54;71.18
23281;BME280;11809;56.390;-3.266;2022-10-24T08:58:05;99002.75;;;15.54;71.29
23281;BME280;11809;56.390;-3.266;2022-10-24T09:00:39;99001.19;;;15.52;71.36
23281;BME280;11809;56.390;-3.266;2022-10-24T09:06:12;99006.25;;;15.55;71.48
23281;BME280;11809;56.390;-3.266;2022-10-24T09:09:01;99001.94;;;15.54;71.22
23281;BME280;11809;56.390;-3.266;2022-10-24T09:14:17;99007.22;;;15.54;71.38
23281;BME280;11809;56.390;-3.266;2022-10-24T09:16:50;99021.28;;;15.54;71.49
23281;BME280;11809;56.390;-3.266;2022-10-24T09:19:21;99019.47;;;15.55;71.41
23281;BME280;11809;56.390;-3.266;2022-10-24T09:21:49;99016.81;;;15.55;71.19
23281;BME280;11809;56.390;-3.266;2022-10-24T09:24:36;99021.88;;;15.58;71.31
23281;BME280;11809;56.390;-3.266;2022-10-24T09:27:20;99019.22;;;15.58;71.23
23281;BME280;11809;56.390;-3.266;2022-10-24T09:30:16;99017.28;;;15.60;71.21
23281;BME280;11809;56.390;-3.266;2022-10-24T09:32:43;99015.59;;;15.59;71.31
23281;BME280;11809;56.390;-3.266;2022-10-24T09:35:17;99015.59;;;15.59;71.17
23281;BME280;11809;56.390;-3.266;2022-10-24T09:37:56;99010.31;;;15.59;71.29
23281;BME280;11809;56.390;-3.266;2022-10-24T09:46:08;99027.84;;;15.60;71.25
23281;BME280;11809;56.390;-3.266;2022-10-24T09:51:32;99025.09;;;15.61;71.24
23281;BME280;11809;56.390;-3.266;2022-10-24T09:54:05;99026.63;;;15.64;71.19
23281;BME280;11809;56.390;-3.266;2022-10-24T09:56:40;99020.34;;;15.65;70.98
23281;BME280;11809;56.390;-3.266;2022-10-24T10:05:16;99026.81;;;15.72;70.91
23281;BME280;11809;56.390;-3.266;2022-10-24T10:07:44;99028.47;;;15.73;70.75
23281;BME280;11809;56.390;-3.266;2022-10-24T10:12:46;99033.50;;;15.76;70.79
23281;BME280;11809;56.390;-3.266;2022-10-24T10:15:31;99031.59;;;15.78;70.78
23281;BME280;11809;56.390;-3.266;2022-10-24T10:18:00;99025.19;;;15.81;70.85
23281;BME280;11809;56.390;-3.266;2022-10-24T10:20:40;99028.53;;;15.83;70.81
23281;BME280;11809;56.390;-3.266;2022-10-24T10:23:27;99033.69;;;15.84;70.73
23281;BME280;11809;56.390;-3.266;2022-10-24T10:26:12;99032.72;;;15.85;70.71
23281;BME280;11809;56.390;-3.266;2022-10-24T10:31:11;99038.59;;;15.89;70.83
23281;BME280;11809;56.390;-3.266;2022-10-24T10:36:19;99032.19;;;15.91;70.62
23281;BME280;11809;56.390;-3.266;2022-10-24T10:45:45;99032.63;;;15.96;70.49
23281;BME280;11809;56.390;-3.266;2022-10-24T10:53:58;99043.91;;;15.98;70.43
23281;BME280;11809;56.390;-3.266;2022-10-24T10:56:53;99043.91;;;15.98;70.55
23281;BME280;11809;56.390;-3.266;2022-10-24T11:10:52;99053.41;;;16.01;70.67
23281;BME280;11809;56.390;-3.266;2022-10-24T11:13:31;99058.84;;;15.99;70.61
23281;BME280;11809;56.390;-3.266;2022-10-24T11:16:03;99049.91;;;16.00;70.50
23281;BME280;11809;56.390;-3.266;2022-10-24T11:18:39;99047.41;;;15.99;70.75
23281;BME280;11809;56.390;-3.266;2022-10-24T11:21:10;99048.38;;;15.98;70.50
23281;BME280;11809;56.390;-3.266;2022-10-24T11:23:48;99053.09;;;15.94;70.39
23281;BME280;11809;56.390;-3.266;2022-10-24T11:26:24;99052.97;;;15.96;70.51
23281;BME280;11809;56.390;-3.266;2022-10-24T11:31:29;99064.53;;;15.95;70.39
23281;BME280;11809;56.390;-3.266;2022-10-24T11:42:00;99073.06;;;15.98;70.68
23281;BME280;11809;56.390;-3.266;2022-10-24T11:44:46;99073.75;;;16.00;70.54
23281;BME280;11809;56.390;-3.266;2022-10-24T11:47:33;99072.09;;;15.99;70.64
23281;BME280;11809;56.390;-3.266;2022-10-24T11:52:39;99086.06;;;16.01;70.49
23281;BME280;11809;56.390;-3.266;2022-10-24T11:55:21;99088.00;;;15.99;70.59
23281;BME280;11809;56.390;-3.266;2022-10-24T11:57:53;99085.47;;;15.98;70.45
23281;BME280;11809;56.390;-3.266;2022-10-24T12:00:28;99089.81;;;15.99;70.52
23281;BME280;11809;56.390;-3.266;2022-10-24T12:09:13;99091.88;;;15.95;70.33
23281;BME280;11809;56.390;-3.266;2022-10-24T12:20:00;99084.19;;;15.92;70.47
23281;BME280;11809;56.390;-3.266;2022-10-24T12:22:33;99082.53;;;15.91;70.53
23281;BME280;11809;56.390;-3.266;2022-10-24T12:25:05;99092.28;;;15.91;70.46
23281;BME280;11809;56.390;-3.266;2022-10-24T12:27:37;99091.59;;;15.89;70.32
23281;BME280;11809;56.390;-3.266;2022-10-24T12:32:44;99098.53;;;15.90;70.52
23281;BME280;11809;56.390;-3.266;2022-10-24T12:38:21;99091.69;;;15.87;70.43
23281;BME280;11809;56.390;-3.266;2022-10-24T12:41:46;99101.34;;;15.88;70.36
23281;BME280;11809;56.390;-3.266;2022-10-24T12:43:48;99102.44;;;15.86;70.49
23281;BME280;11809;56.390;-3.266;2022-10-24T12:51:31;99099.78;;;15.86;70.47
23281;BME280;11809;56.390;-3.266;2022-10-24T12:54:02;99099.78;;;15.86;70.50
23281;BME280;11809;56.390;-3.266;2022-10-24T12:56:31;99099.78;;;15.86;70.38
23281;BME280;11809;56.390;-3.266;2022-10-24T12:59:18;99089.31;;;15.84;70.30
23281;BME280;11809;56.390;-3.266;2022-10-24T13:01:48;99104.34;;;15.84;70.44
23281;BME280;11809;56.390;-3.266;2022-10-24T13:10:07;99101.84;;;15.82;70.40
23281;BME280;11809;56.390;-3.266;2022-10-24T13:21:45;99116.78;;;15.83;70.68
23281;BME280;11809;56.390;-3.266;2022-10-24T13:37:21;99124.75;;;15.83;70.34
23281;BME280;11809;56.390;-3.266;2022-10-24T13:42:22;99133.66;;;15.82;70.42
23281;BME280;11809;56.390;-3.266;2022-10-24T13:44:55;99126.66;;;15.81;70.56
23281;BME280;11809;56.390;-3.266;2022-10-24T13:47:35;99127.66;;;15.80;70.37
23281;BME280;11809;56.390;-3.266;2022-10-24T13:52:46;99131.13;;;15.81;70.45
23281;BME280;11809;56.390;-3.266;2022-10-24T13:55:36;99125.84;;;15.81;70.38
23281;BME280;11809;56.390;-3.266;2022-10-24T14:00:35;99124.00;;;15.81;70.40
23281;BME280;11809;56.390;-3.266;2022-10-24T14:03:09;99130.28;;;15.80;70.27
23281;BME280;11809;56.390;-3.266;2022-10-24T14:05:43;99134.75;;;15.80;70.63
23281;BME280;11809;56.390;-3.266;2022-10-24T14:08:28;99127.66;;;15.80;70.33
23281;BME280;11809;56.390;-3.266;2022-10-24T14:10:58;99128.59;;;15.79;70.27
23281;BME280;11809;56.390;-3.266;2022-10-24T14:13:27;99132.25;;;15.78;70.46
23281;BME280;11809;56.390;-3.266;2022-10-24T14:16:04;99140.19;;;15.78;70.28
23281;BME280;11809;56.390;-3.266;2022-10-24T14:18:33;99137.53;;;15.78;70.36
23281;BME280;11809;56.390;-3.266;2022-10-24T14:21:03;99139.34;;;15.77;70.23
23281;BME280;11809;56.390;-3.266;2022-10-24T14:23:38;99139.44;;;15.76;70.39
23281;BME280;11809;56.390;-3.266;2022-10-24T14:26:17;99137.66;;;15.76;70.45
23281;BME280;11809;56.390;-3.266;2022-10-24T14:28:48;99146.56;;;15.75;70.36
23281;BME280;11809;56.390;-3.266;2022-10-24T14:31:23;99139.59;;;15.74;70.27
23281;BME280;11809;56.390;-3.266;2022-10-24T14:33:53;99138.59;;;15.75;70.28
23281;BME280;11809;56.390;-3.266;2022-10-24T14:36:24;99135.16;;;15.75;69.94
23281;BME280;11809;56.390;-3.266;2022-10-24T14:38:53;99142.34;;;15.73;70.50
23281;BME280;11809;56.390;-3.266;2022-10-24T14:41:32;99140.56;;;15.73;70.31
23281;BME280;11809;56.390;-3.266;2022-10-24T14:44:01;99147.66;;;15.73;70.42
23281;BME280;11809;56.390;-3.266;2022-10-24T14:49:19;99148.66;;;15.72;70.52
23281;BME280;11809;56.390;-3.266;2022-10-24T14:51:50;99147.81;;;15.71;70.36
23281;BME280;11809;56.390;-3.266;2022-10-24T14:54:49;99153.94;;;15.72;70.43
23281;BME280;11809;56.390;-3.266;2022-10-24T14:57:19;99144.19;;;15.72;70.48
23281;BME280;11809;56.390;-3.266;2022-10-24T14:59:49;99149.50;;;15.72;70.47
23281;BME280;11809;56.390;-3.266;2022-10-24T15:02:21;99152.25;;;15.71;70.61
23281;BME280;11809;56.390;-3.266;2022-10-24T15:04:50;99152.25;;;15.71;70.61
23281;BME280;11809;56.390;-3.266;2022-10-24T15:07:36;99159.25;;;15.72;70.53
23281;BME280;11809;56.390;-3.266;2022-10-24T15:12:43;99161.88;;;15.72;70.77
23281;BME280;11809;56.390;-3.266;2022-10-24T15:17:51;99168.13;;;15.71;70.82
23281;BME280;11809;56.390;-3.266;2022-10-24T15:20:22;99169.25;;;15.68;70.79
23281;BME280;11809;56.390;-3.266;2022-10-24T15:22:52;99177.88;;;15.70;70.80
23281;BME280;11809;56.390;-3.266;2022-10-24T15:25:33;99177.88;;;15.70;70.58
23281;BME280;11809;56.390;-3.266;2022-10-24T15:28:05;99175.38;;;15.69;70.89
23281;BME280;11809;56.390;-3.266;2022-10-24T15:30:36;99179.00;;;15.68;70.80
23281;BME280;11809;56.390;-3.266;2022-10-24T15:33:05;99177.06;;;15.70;70.74
23281;BME280;11809;56.390;-3.266;2022-10-24T15:35:37;99183.19;;;15.70;70.70
23281;BME280;11809;56.390;-3.266;2022-10-24T15:38:15;99188.47;;;15.70;70.56
23281;BME280;11809;56.390;-3.266;2022-10-24T15:40:47;99188.47;;;15.70;70.54
23281;BME280;11809;56.390;-3.266;2022-10-24T15:43:18;99190.31;;;15.70;70.51
23281;BME280;11809;56.390;-3.266;2022-10-24T15:45:45;99194.31;;;15.64;70.15